Clover Valley, Nevada Weather observations

Data are for 10 minute period ending at time listed.
 Day   Time   Solar   Ave.   Ave.  Ave.  Vector  Max.   Baro.   Total    
  of    of     Rad.   Air    Rel.  Wind   Wind   Wind  Press.  Precip.   
Year   Day            Temp.  Hum.  Speed  Dir.   Gust                    
2015   (PST)  Kw/m2    F      %     mph   deg.    mph    mb.     in.     
-------------------------------------------------------------------------
 247    7:20   0.35   50.8    56    5.0   146     9.0   822.0    0.00 
 247    7:30   0.18   53.2    51    1.1   180     3.2   822.2    0.00 
 247    7:40   0.40   55.4    47    2.0   181     4.3   822.3    0.00 
 247    7:50   0.25   56.3    45    2.4   234     4.4   822.3    0.00 
 247    8:00   0.47   56.9    44    1.8   253     3.9   822.3    0.00 
 247    8:10   0.50   59.4    40    1.2   161     3.9   822.3    0.00 
 247    8:20   0.53   59.5    41    1.6   311     4.4   822.3    0.00 
 247    8:30   0.21   60.0    40    1.6   326     2.9   822.3    0.00 
 247    8:40   0.00   61.3    36    1.5    20     4.5   822.3    0.00 
 247    8:50   0.18   61.9    35    2.0   105     5.0   822.3    0.00 
 247    9:00   0.26   64.3    33    2.4   182     4.8   822.2    0.00 
 247    9:10   0.00   65.8    32    2.5   188     5.8   822.2    0.00 
 247    9:20   0.36   66.6    30    2.7   117     8.3   822.0    0.00 
 247    9:30   0.23   67.7    26    5.2   164     9.3   821.9    0.00 
 247    9:40   0.00   68.5    26    6.8   186    11.0   821.8    0.00 
 247    9:50   0.00   69.5    24    6.8   194    10.7   821.6    0.00 
 247   10:00   0.01   70.5    24    5.4   192    14.2   821.4    0.00 
 247   10:10   0.01   72.5    21   10.5   212    19.7   821.2    0.00 
 247   10:20   0.13   73.9    18   14.3   188    21.9   821.1    0.00 
 247   10:30   0.55   74.0    18   16.0   191    23.9   821.0    0.00 
 247   10:40   0.26   74.5    16   15.8   195    29.2   820.8    0.00 
 247   10:50   0.68   74.1    16   15.9   200    23.6   820.7    0.00 
 247   11:00   0.71   73.6    17   15.9   206    23.8   820.5    0.00 
 247   11:10   0.84   74.3    16   17.5   214    27.1   820.4    0.00 
 247   11:20   0.67   74.6    15   17.0   215    26.4   820.3    0.00 
 247   11:30   0.80   74.6    15   17.3   214    26.0   820.1    0.00 
 247   11:40   0.97   76.0    15   17.1   210    27.0   819.9    0.00 
 247   11:50   0.79   76.2    15   16.4   205    24.7   819.8    0.00 
 247   12:00   0.58   75.5    15   16.3   204    28.9   819.7    0.00 
 247   12:10   0.54   74.5    17   15.4   227    37.1   819.6    0.00 
 247   12:20   0.67   75.5    16   13.2   213    28.3   819.6    0.00 
 247   12:30   0.74   76.2    14   13.9   209    23.8   819.4    0.00 
 247   12:40   0.76   76.9    14   14.9   204    22.9   819.2    0.00 
 247   12:50   0.82   77.1    13   17.9   204    28.9   819.1    0.00 
 247   13:00   0.88   77.5    13   19.7   207    30.0   819.0    0.00 
 247   13:10   0.68   77.6    13   16.6   198    24.7   818.8    0.00 
 247   13:20   0.85   77.7    14   17.9   222    38.6   818.7    0.00 
 247   13:30   0.66   77.6    13   14.8   205    28.4   818.7    0.00 
 247   13:40   0.66   78.1    12   14.4   201    26.8   818.4    0.00 
 247   13:50   0.77   78.6    12   16.7   211    26.1   818.3    0.00 
 247   14:00   0.75   78.6    12   13.9   211    27.3   818.0    0.00 
 247   14:10   0.47   79.2    12   16.6   210    27.6   817.9    0.00 
 247   14:20   0.00   78.2    12   19.5   217    28.1   817.8    0.00 
 247   14:30   0.00   78.5    12   14.7   212    22.6   817.7    0.00 
 247   14:40   0.00   79.2    11   15.2   214    22.4   817.6    0.00 
 247   14:50   0.49   78.2    11   17.9   222    25.5   817.4    0.00 
 247   15:00   0.34   79.2    11   16.6   209    27.6   817.2    0.00 
 247   15:10   0.51   78.3    12   13.8   236    24.3   817.3    0.00 
 247   15:20   0.41   78.1    11   17.0   211    24.5   817.3    0.00 
 247   15:30   0.14   75.8    12   14.6   216    22.9   817.2    0.00 
 247   15:40   0.25   75.8    12   13.5   214    26.4   817.3    0.00 
 247   15:50   0.20   76.2    10   15.9   210    24.2   817.3    0.00 
 247   16:00   0.08   75.2    10   15.8   225    24.5   817.2    0.00 
 247   16:10   0.06   74.6    10   16.0   216    22.3   817.2    0.00 
 247   16:20   0.08   74.3    10   16.7   216    23.7   817.2    0.00 
 247   16:30   0.06   74.3    10   16.3   212    25.8   817.3    0.00 
 247   16:40   0.04   73.2    13   13.3   253    26.3   817.4    0.00 
 247   16:50   0.00   71.2    16    7.8   259    15.1   817.5    0.00 
 247   17:00   0.00   71.3    17   10.9   273    18.3   817.6    0.00 
 247   17:10   0.01   70.8    19    9.3   285    18.4   817.6    0.00 
 247   17:20   0.09   70.4    20    8.6   287    17.2   817.6    0.00 
 247   17:30   0.07   70.0    18   10.5   279    18.7   817.6    0.00 
 247   17:40   0.03   69.3    19    8.7   282    15.6   817.7    0.00 
 247   17:50   0.01   67.3    21    7.5   283    12.9   817.8    0.00 
 247   18:00   0.01   67.2    20    9.1   278    15.1   817.9    0.00 
 247   18:10   0.01   67.7    19   12.3   275    22.8   817.9    0.00 
 247   18:20   0.00   67.0    19    9.5   280    16.9   817.9    0.00 
 247   18:30   0.00   66.6    19   10.4   273    17.0   818.0    0.00 
 247   18:40   0.00   67.1    18   12.6   273    19.5   818.0    0.00 
 247   18:50   0.00   66.6    18   10.8   271    19.5   818.0    0.00 
 247   19:00   0.00   66.8    17   13.4   262    22.3   818.2    0.00 
 247   19:10   0.00   66.5    16   11.3   270    22.6   818.4    0.00 
 247   19:20   0.00   65.8    16   10.4   270    18.3   818.6    0.00 
 247   19:30   0.00   65.7    16   10.3   268    16.7   818.9    0.00 
 247   19:40   0.00   65.5    15    8.4   283    14.0   819.1    0.00 
 247   19:50   0.00   65.8    15   10.9   280    17.2   819.2    0.00 
 247   20:00   0.00   64.8    17    6.6   321    14.6   819.3    0.00 
 247   20:10   0.00   63.2    19    2.1   312     9.4   819.5    0.00 
 247   20:20   100.00  99999.0   99999  99999.0   99999   99999.0   99999.0   99999.00 
 247   20:30   100.00  99999.0   99999  99999.0   99999   99999.0   99999.0   99999.00 
 247   20:40   100.00  99999.0   99999  99999.0   99999   99999.0   99999.0   99999.00 
 247   20:50   100.00  99999.0   99999  99999.0   99999   99999.0   99999.0   99999.00 
 247   21:00   100.00  99999.0   99999  99999.0   99999   99999.0   99999.0   99999.00 
 247   21:10   100.00  99999.0   99999  99999.0   99999   99999.0   99999.0   99999.00 
 247   21:20   0.00   55.9    30   11.8    34    15.9   820.3    0.00 
 247   21:30   0.00   54.4    32    9.4    32    14.2   820.5    0.00 
 247   21:40   0.00   54.3    32    9.2    28    14.1   820.5    0.00 
 247   21:50   0.00   53.9    31    3.7   258     7.5   820.6    0.00 
 247   22:00   0.00   55.2    28    4.4   316     8.4   820.6    0.00 
 247   22:10   0.00   54.9    30    1.8    11     4.0   820.6    0.00 
 247   22:20   0.00   52.5    35    3.7    11     7.5   820.7    0.00 
 247   22:30   0.00   52.7    35    7.2    27    14.8   820.9    0.00 
 247   22:40   0.00   53.1    35   12.5    30    19.5   820.8    0.00 
 247   22:50   0.00   53.3    35   13.3    25    19.5   820.9    0.00 
 247   23:00   0.00   53.0    35   13.5    24    19.4   821.1    0.00 
 247   23:10   0.00   52.9    36   14.9    26    21.3   821.2    0.00 
 247   23:20   0.00   52.7    36   13.9    16    20.2   821.4    0.00 
 247   23:30   0.00   52.2    38   12.2    26    18.0   821.6    0.00 
 247   23:40   0.00   51.3    40   10.6    22    15.4   821.7    0.00 
 247   23:50   0.00   50.8    42   10.3    24    14.5   821.6    0.00 
 248    0:00   0.00   50.3    43   10.7    26    15.9   821.6    0.00 
 248    0:10   0.00   50.0    44   10.0    24    14.6   821.6    0.00 
 248    0:20   0.00   49.7    44    9.3    23    14.0   821.6    0.00 
 248    0:30   0.00   49.0    46    8.2    27    12.5   821.6    0.00 
 248    0:40   0.00   48.5    48    7.3    22    11.5   821.7    0.00 
 248    0:50   0.00   48.0    48    7.2    18    10.0   821.6    0.00 
 248    1:00   0.00   47.2    51    4.7    26     8.8   821.7    0.00 
 248    1:10   0.00   46.3    53    1.9    50     4.5   821.7    0.00 
 248    1:20   0.00   46.5    52    1.8    48     3.4   821.9    0.00 
 248    1:30   0.00   47.2    50    2.6    42     5.7   821.9    0.00 
 248    1:40   0.00   47.2    52    3.2    73     6.6   821.9    0.00 
 248    1:50   0.00   47.7    51    3.7    58     5.1   822.0    0.00 
 248    2:00   0.00   48.3    50    4.6    40     6.8   822.0    0.00 
 248    2:10   0.00   49.0    48    4.9    19     9.6   822.2    0.00 
 248    2:20   0.00   49.5    47    5.6    30     9.9   822.2    0.00 
 248    2:30   0.00   48.8    50    2.4   356     4.5   822.4    0.00 
 248    2:40   0.00   48.3    52    1.6   334     3.9   822.6    0.00 
 248    2:50   0.00   47.8    52    0.1   282     1.2   822.7    0.00 
 248    3:00   0.00   48.0    52    1.8    62     3.3   822.8    0.00 
 248    3:10   0.00   47.6    55    3.3    69     5.3   822.8    0.00 
 248    3:20   0.00   47.2    56    0.9    58     2.7   822.8    0.00 
 248    3:30   0.00   47.0    56    2.3    48     4.0   822.8    0.00 
 248    3:40   0.00   46.6    60    3.1    43     3.7   822.9    0.00 
 248    3:50   0.00   46.7    58    1.4     8     3.1   822.9    0.00 
 248    4:00   0.00   45.0    61    2.0   307     4.1   823.0    0.00 
 248    4:10   0.00   45.0    62    1.2     4     2.1   823.1    0.00 
 248    4:20   0.00   43.9    64    1.9   336     3.3   823.1    0.00 
 248    4:30   0.00   44.7    61    0.6   344     2.3   823.2    0.00 
 248    4:40   0.00   42.1    61    2.4   251     3.5   823.2    0.00 
 248    4:50   0.00   42.9    58    2.2   281     4.2   823.3    0.00 
 248    5:00   0.00   39.8    61    2.0   246     3.0   823.4    0.00 
 248    5:10   0.00   38.4    63    1.4   181     3.9   823.5    0.00 
 248    5:20   0.01   37.1    66    3.2   157     5.1   823.7    0.00 
 248    5:30   0.02   39.6    67    2.6    39     5.3   823.8    0.00 
 248    5:40   0.03   38.3    69    1.7   248     4.5   824.0    0.00 
 248    5:50   0.06   39.3    67    2.5   151     4.1   824.2    0.00 
 248    6:00   0.08   41.5    65    1.0   129     2.3   824.3    0.00 
 248    6:10   0.10   43.4    62    1.8   171     3.9   824.4    0.00 
 248    6:20   0.09   46.3    57    1.1   149     3.1   824.3    0.00 
 248    6:30   0.16   48.2    52    2.6   157     4.3   824.4    0.00 
 248    6:40   0.20   50.1    46    1.8   213     4.8   824.5    0.00 
 248    6:50   0.24   51.3    43    2.4   117     4.4   824.5    0.00 
 248    7:00   0.27   50.8    46    5.1   143     7.2   824.7    0.00 
 248    7:10   0.30   51.0    43    5.4   148     7.3   824.8    0.00 

Return to Clover Valley graphs page.


Western Regional Climate Center,wrcc@dri.edu